sensor_id;sensor_type;location;lat;lon;timestamp;P1;durP1;ratioP1;P2;durP2;ratioP2
24859;SDS011;12936;52.006;4.350;2023-04-01T00:01:12;62.30;;;10.53;;
24859;SDS011;12936;52.006;4.350;2023-04-01T00:03:41;48.03;;;8.90;;
24859;SDS011;12936;52.006;4.350;2023-04-01T00:06:11;61.13;;;9.50;;
24859;SDS011;12936;52.006;4.350;2023-04-01T00:08:42;64.53;;;10.80;;
24859;SDS011;12936;52.006;4.350;2023-04-01T00:11:14;49.03;;;10.50;;
24859;SDS011;12936;52.006;4.350;2023-04-01T00:13:45;48.93;;;7.97;;
24859;SDS011;12936;52.006;4.350;2023-04-01T00:16:18;64.70;;;9.47;;
24859;SDS011;12936;52.006;4.350;2023-04-01T00:18:48;56.33;;;8.50;;
24859;SDS011;12936;52.006;4.350;2023-04-01T00:21:17;47.53;;;9.03;;
24859;SDS011;12936;52.006;4.350;2023-04-01T00:23:49;39.10;;;8.17;;
24859;SDS011;12936;52.006;4.350;2023-04-01T00:26:20;49.50;;;8.63;;
24859;SDS011;12936;52.006;4.350;2023-04-01T00:28:48;49.37;;;9.57;;
24859;SDS011;12936;52.006;4.350;2023-04-01T00:31:16;55.37;;;9.27;;
24859;SDS011;12936;52.006;4.350;2023-04-01T00:33:44;57.90;;;8.93;;
24859;SDS011;12936;52.006;4.350;2023-04-01T00:36:14;63.23;;;10.10;;
24859;SDS011;12936;52.006;4.350;2023-04-01T00:38:45;45.73;;;8.67;;
24859;SDS011;12936;52.006;4.350;2023-04-01T00:41:13;49.30;;;9.83;;
24859;SDS011;12936;52.006;4.350;2023-04-01T00:43:47;52.63;;;8.73;;
24859;SDS011;12936;52.006;4.350;2023-04-01T00:46:18;46.70;;;9.47;;
24859;SDS011;12936;52.006;4.350;2023-04-01T00:48:48;53.37;;;8.97;;
24859;SDS011;12936;52.006;4.350;2023-04-01T00:51:23;43.07;;;9.33;;
24859;SDS011;12936;52.006;4.350;2023-04-01T00:53:58;72.37;;;9.03;;
24859;SDS011;12936;52.006;4.350;2023-04-01T00:56:36;50.63;;;9.17;;
24859;SDS011;12936;52.006;4.350;2023-04-01T00:59:11;39.87;;;8.03;;
24859;SDS011;12936;52.006;4.350;2023-04-01T01:01:46;37.80;;;8.20;;
24859;SDS011;12936;52.006;4.350;2023-04-01T01:04:21;42.73;;;8.87;;
24859;SDS011;12936;52.006;4.350;2023-04-01T01:07:34;39.03;;;7.53;;
24859;SDS011;12936;52.006;4.350;2023-04-01T01:10:13;25.80;;;6.83;;
24859;SDS011;12936;52.006;4.350;2023-04-01T01:13:04;31.93;;;7.10;;
24859;SDS011;12936;52.006;4.350;2023-04-01T01:15:41;24.50;;;6.50;;
24859;SDS011;12936;52.006;4.350;2023-04-01T01:18:16;27.80;;;7.07;;
24859;SDS011;12936;52.006;4.350;2023-04-01T01:27:12;25.60;;;7.30;;
24859;SDS011;12936;52.006;4.350;2023-04-01T01:32:57;26.10;;;6.73;;
24859;SDS011;12936;52.006;4.350;2023-04-01T01:35:46;23.83;;;7.50;;
24859;SDS011;12936;52.006;4.350;2023-04-01T01:38:17;22.23;;;5.23;;
24859;SDS011;12936;52.006;4.350;2023-04-01T01:40:49;28.30;;;6.87;;
24859;SDS011;12936;52.006;4.350;2023-04-01T01:43:24;23.53;;;5.67;;
24859;SDS011;12936;52.006;4.350;2023-04-01T01:45:57;24.10;;;5.97;;
24859;SDS011;12936;52.006;4.350;2023-04-01T01:48:29;19.63;;;6.13;;
24859;SDS011;12936;52.006;4.350;2023-04-01T01:51:00;19.03;;;5.97;;
24859;SDS011;12936;52.006;4.350;2023-04-01T01:53:30;20.27;;;5.40;;
24859;SDS011;12936;52.006;4.350;2023-04-01T01:56:01;22.87;;;5.67;;
24859;SDS011;12936;52.006;4.350;2023-04-01T01:58:30;19.80;;;5.10;;
24859;SDS011;12936;52.006;4.350;2023-04-01T02:01:01;18.00;;;5.13;;
24859;SDS011;12936;52.006;4.350;2023-04-01T02:03:34;19.47;;;5.87;;
24859;SDS011;12936;52.006;4.350;2023-04-01T02:06:06;12.50;;;3.50;;
24859;SDS011;12936;52.006;4.350;2023-04-01T02:08:38;16.40;;;4.83;;
24859;SDS011;12936;52.006;4.350;2023-04-01T02:11:10;12.97;;;4.87;;
24859;SDS011;12936;52.006;4.350;2023-04-01T02:13:42;11.00;;;3.60;;
24859;SDS011;12936;52.006;4.350;2023-04-01T02:16:16;17.13;;;5.23;;
24859;SDS011;12936;52.006;4.350;2023-04-01T02:18:51;10.07;;;3.77;;
24859;SDS011;12936;52.006;4.350;2023-04-01T02:21:24;8.07;;;2.90;;
24859;SDS011;12936;52.006;4.350;2023-04-01T02:23:56;9.03;;;3.50;;
24859;SDS011;12936;52.006;4.350;2023-04-01T02:26:26;8.03;;;3.23;;
24859;SDS011;12936;52.006;4.350;2023-04-01T02:28:54;6.33;;;3.23;;
24859;SDS011;12936;52.006;4.350;2023-04-01T02:31:24;8.13;;;3.20;;
24859;SDS011;12936;52.006;4.350;2023-04-01T02:34:15;5.40;;;3.10;;
24859;SDS011;12936;52.006;4.350;2023-04-01T02:36:50;9.40;;;3.73;;
24859;SDS011;12936;52.006;4.350;2023-04-01T02:39:20;9.43;;;4.00;;
24859;SDS011;12936;52.006;4.350;2023-04-01T02:41:49;12.80;;;4.47;;
24859;SDS011;12936;52.006;4.350;2023-04-01T02:44:18;12.00;;;5.30;;
24859;SDS011;12936;52.006;4.350;2023-04-01T02:46:46;10.83;;;5.97;;
24859;SDS011;12936;52.006;4.350;2023-04-01T02:49:16;18.33;;;7.13;;
24859;SDS011;12936;52.006;4.350;2023-04-01T02:51:45;21.73;;;8.03;;
24859;SDS011;12936;52.006;4.350;2023-04-01T02:54:15;20.33;;;8.53;;
24859;SDS011;12936;52.006;4.350;2023-04-01T02:56:43;21.37;;;9.17;;
24859;SDS011;12936;52.006;4.350;2023-04-01T02:59:11;24.33;;;10.37;;
24859;SDS011;12936;52.006;4.350;2023-04-01T03:02:00;26.27;;;10.63;;
24859;SDS011;12936;52.006;4.350;2023-04-01T03:04:39;28.50;;;11.17;;
24859;SDS011;12936;52.006;4.350;2023-04-01T03:07:07;28.07;;;11.03;;
24859;SDS011;12936;52.006;4.350;2023-04-01T03:09:38;31.93;;;12.47;;
24859;SDS011;12936;52.006;4.350;2023-04-01T03:12:08;34.07;;;12.57;;
24859;SDS011;12936;52.006;4.350;2023-04-01T03:14:36;30.27;;;12.63;;
24859;SDS011;12936;52.006;4.350;2023-04-01T03:17:06;34.80;;;12.50;;
24859;SDS011;12936;52.006;4.350;2023-04-01T03:19:34;31.23;;;11.83;;
24859;SDS011;12936;52.006;4.350;2023-04-01T03:22:02;34.40;;;11.83;;
24859;SDS011;12936;52.006;4.350;2023-04-01T03:24:32;43.07;;;11.43;;
24859;SDS011;12936;52.006;4.350;2023-04-01T03:27:01;30.30;;;11.03;;
24859;SDS011;12936;52.006;4.350;2023-04-01T03:29:30;37.07;;;11.80;;
24859;SDS011;12936;52.006;4.350;2023-04-01T03:31:59;27.27;;;12.00;;
24859;SDS011;12936;52.006;4.350;2023-04-01T03:34:28;26.00;;;10.63;;
24859;SDS011;12936;52.006;4.350;2023-04-01T03:36:58;28.93;;;11.17;;
24859;SDS011;12936;52.006;4.350;2023-04-01T03:39:26;21.13;;;9.37;;
24859;SDS011;12936;52.006;4.350;2023-04-01T03:41:54;24.73;;;9.93;;
24859;SDS011;12936;52.006;4.350;2023-04-01T03:44:29;24.53;;;10.70;;
24859;SDS011;12936;52.006;4.350;2023-04-01T03:47:06;19.50;;;9.67;;
24859;SDS011;12936;52.006;4.350;2023-04-01T03:49:40;20.50;;;9.43;;
24859;SDS011;12936;52.006;4.350;2023-04-01T03:52:10;20.23;;;9.90;;
24859;SDS011;12936;52.006;4.350;2023-04-01T03:54:38;24.30;;;10.57;;
24859;SDS011;12936;52.006;4.350;2023-04-01T03:57:07;21.43;;;9.63;;
24859;SDS011;12936;52.006;4.350;2023-04-01T03:59:38;23.93;;;10.33;;
24859;SDS011;12936;52.006;4.350;2023-04-01T04:02:08;21.73;;;10.57;;
24859;SDS011;12936;52.006;4.350;2023-04-01T04:04:37;21.53;;;10.27;;
24859;SDS011;12936;52.006;4.350;2023-04-01T04:07:25;25.47;;;11.00;;
24859;SDS011;12936;52.006;4.350;2023-04-01T04:09:56;23.43;;;10.87;;
24859;SDS011;12936;52.006;4.350;2023-04-01T04:12:24;23.77;;;10.73;;
24859;SDS011;12936;52.006;4.350;2023-04-01T04:14:56;23.77;;;10.70;;
24859;SDS011;12936;52.006;4.350;2023-04-01T04:17:25;17.30;;;9.83;;
24859;SDS011;12936;52.006;4.350;2023-04-01T04:19:55;20.77;;;9.10;;
24859;SDS011;12936;52.006;4.350;2023-04-01T04:22:25;20.70;;;9.67;;
24859;SDS011;12936;52.006;4.350;2023-04-01T04:24:55;18.17;;;9.30;;
24859;SDS011;12936;52.006;4.350;2023-04-01T04:27:25;19.90;;;9.70;;
24859;SDS011;12936;52.006;4.350;2023-04-01T04:29:53;20.63;;;9.60;;
24859;SDS011;12936;52.006;4.350;2023-04-01T04:32:23;25.43;;;11.30;;
24859;SDS011;12936;52.006;4.350;2023-04-01T04:34:53;18.03;;;10.10;;
24859;SDS011;12936;52.006;4.350;2023-04-01T04:37:23;17.93;;;9.63;;
24859;SDS011;12936;52.006;4.350;2023-04-01T04:40:15;23.67;;;9.60;;
24859;SDS011;12936;52.006;4.350;2023-04-01T04:42:45;18.17;;;8.37;;
24859;SDS011;12936;52.006;4.350;2023-04-01T04:45:36;20.60;;;9.37;;
24859;SDS011;12936;52.006;4.350;2023-04-01T04:48:04;26.20;;;7.90;;
24859;SDS011;12936;52.006;4.350;2023-04-01T04:50:35;23.00;;;9.00;;
24859;SDS011;12936;52.006;4.350;2023-04-01T04:53:05;18.03;;;8.73;;
24859;SDS011;12936;52.006;4.350;2023-04-01T04:55:33;22.77;;;10.37;;
24859;SDS011;12936;52.006;4.350;2023-04-01T04:58:06;23.03;;;8.80;;
24859;SDS011;12936;52.006;4.350;2023-04-01T05:00:37;19.37;;;9.37;;
24859;SDS011;12936;52.006;4.350;2023-04-01T05:03:12;19.63;;;9.20;;
24859;SDS011;12936;52.006;4.350;2023-04-01T05:05:47;19.20;;;9.63;;
24859;SDS011;12936;52.006;4.350;2023-04-01T05:08:19;21.80;;;9.10;;
24859;SDS011;12936;52.006;4.350;2023-04-01T05:10:49;16.50;;;9.30;;
24859;SDS011;12936;52.006;4.350;2023-04-01T05:13:22;22.37;;;8.93;;
24859;SDS011;12936;52.006;4.350;2023-04-01T05:15:57;14.00;;;8.10;;
24859;SDS011;12936;52.006;4.350;2023-04-01T05:18:26;19.50;;;8.93;;
24859;SDS011;12936;52.006;4.350;2023-04-01T05:21:14;21.43;;;9.43;;
24859;SDS011;12936;52.006;4.350;2023-04-01T05:23:44;16.03;;;8.47;;
24859;SDS011;12936;52.006;4.350;2023-04-01T05:26:13;23.83;;;9.43;;
24859;SDS011;12936;52.006;4.350;2023-04-01T05:28:42;18.13;;;8.60;;
24859;SDS011;12936;52.006;4.350;2023-04-01T05:31:11;19.00;;;8.33;;
24859;SDS011;12936;52.006;4.350;2023-04-01T05:33:39;26.63;;;9.93;;
24859;SDS011;12936;52.006;4.350;2023-04-01T05:36:08;21.20;;;9.80;;
24859;SDS011;12936;52.006;4.350;2023-04-01T05:38:37;22.63;;;10.00;;
24859;SDS011;12936;52.006;4.350;2023-04-01T05:41:06;22.60;;;8.93;;
24859;SDS011;12936;52.006;4.350;2023-04-01T05:43:35;18.73;;;8.20;;
24859;SDS011;12936;52.006;4.350;2023-04-01T05:46:03;23.07;;;9.40;;
24859;SDS011;12936;52.006;4.350;2023-04-01T05:48:33;18.83;;;9.70;;
24859;SDS011;12936;52.006;4.350;2023-04-01T05:51:02;20.37;;;8.00;;
24859;SDS011;12936;52.006;4.350;2023-04-01T05:53:31;23.17;;;9.43;;
24859;SDS011;12936;52.006;4.350;2023-04-01T05:56:01;20.60;;;8.60;;
24859;SDS011;12936;52.006;4.350;2023-04-01T05:58:30;21.13;;;9.20;;
24859;SDS011;12936;52.006;4.350;2023-04-01T06:01:02;27.60;;;9.63;;
24859;SDS011;12936;52.006;4.350;2023-04-01T06:03:37;19.93;;;9.87;;
24859;SDS011;12936;52.006;4.350;2023-04-01T06:06:08;21.73;;;9.47;;
24859;SDS011;12936;52.006;4.350;2023-04-01T06:08:41;19.80;;;8.43;;
24859;SDS011;12936;52.006;4.350;2023-04-01T06:11:14;18.63;;;7.73;;
24859;SDS011;12936;52.006;4.350;2023-04-01T06:13:52;18.70;;;8.93;;
24859;SDS011;12936;52.006;4.350;2023-04-01T06:16:39;20.93;;;8.37;;
24859;SDS011;12936;52.006;4.350;2023-04-01T06:19:25;19.93;;;10.40;;
24859;SDS011;12936;52.006;4.350;2023-04-01T06:22:07;21.60;;;9.03;;
24859;SDS011;12936;52.006;4.350;2023-04-01T06:24:59;18.73;;;8.87;;
24859;SDS011;12936;52.006;4.350;2023-04-01T06:27:54;23.57;;;8.70;;
24859;SDS011;12936;52.006;4.350;2023-04-01T06:30:35;23.77;;;9.00;;
24859;SDS011;12936;52.006;4.350;2023-04-01T06:36:03;23.40;;;9.17;;
24859;SDS011;12936;52.006;4.350;2023-04-01T06:38:54;24.83;;;9.43;;
24859;SDS011;12936;52.006;4.350;2023-04-01T06:44:49;20.13;;;8.73;;
24859;SDS011;12936;52.006;4.350;2023-04-01T06:47:29;17.57;;;8.30;;
24859;SDS011;12936;52.006;4.350;2023-04-01T06:50:11;17.80;;;7.63;;
24859;SDS011;12936;52.006;4.350;2023-04-01T06:52:51;13.90;;;7.53;;
24859;SDS011;12936;52.006;4.350;2023-04-01T06:55:29;16.50;;;7.27;;
24859;SDS011;12936;52.006;4.350;2023-04-01T06:58:04;11.13;;;6.87;;
24859;SDS011;12936;52.006;4.350;2023-04-01T07:00:37;7.43;;;4.83;;
24859;SDS011;12936;52.006;4.350;2023-04-01T07:03:10;9.97;;;5.30;;
24859;SDS011;12936;52.006;4.350;2023-04-01T07:05:46;12.00;;;5.10;;
24859;SDS011;12936;52.006;4.350;2023-04-01T07:08:17;9.10;;;4.50;;
24859;SDS011;12936;52.006;4.350;2023-04-01T07:10:50;7.43;;;4.10;;
24859;SDS011;12936;52.006;4.350;2023-04-01T07:13:24;6.63;;;4.23;;
24859;SDS011;12936;52.006;4.350;2023-04-01T07:16:03;5.43;;;3.63;;
24859;SDS011;12936;52.006;4.350;2023-04-01T07:18:37;4.33;;;3.17;;
24859;SDS011;12936;52.006;4.350;2023-04-01T07:21:15;6.57;;;3.53;;
24859;SDS011;12936;52.006;4.350;2023-04-01T07:23:59;4.40;;;3.03;;
24859;SDS011;12936;52.006;4.350;2023-04-01T07:26:32;6.60;;;3.90;;
24859;SDS011;12936;52.006;4.350;2023-04-01T07:29:00;5.97;;;4.33;;
24859;SDS011;12936;52.006;4.350;2023-04-01T07:31:32;7.90;;;4.73;;
24859;SDS011;12936;52.006;4.350;2023-04-01T07:34:12;8.30;;;5.00;;
24859;SDS011;12936;52.006;4.350;2023-04-01T07:36:48;9.83;;;5.73;;
24859;SDS011;12936;52.006;4.350;2023-04-01T07:39:28;13.63;;;6.50;;
24859;SDS011;12936;52.006;4.350;2023-04-01T07:42:04;12.20;;;7.30;;
24859;SDS011;12936;52.006;4.350;2023-04-01T07:45:04;12.30;;;6.67;;
24859;SDS011;12936;52.006;4.350;2023-04-01T07:47:47;13.00;;;7.43;;
24859;SDS011;12936;52.006;4.350;2023-04-01T07:50:27;10.57;;;6.17;;
24859;SDS011;12936;52.006;4.350;2023-04-01T07:53:00;13.47;;;7.33;;
24859;SDS011;12936;52.006;4.350;2023-04-01T07:55:36;16.60;;;7.83;;
24859;SDS011;12936;52.006;4.350;2023-04-01T07:58:13;13.27;;;7.47;;
24859;SDS011;12936;52.006;4.350;2023-04-01T08:00:48;16.77;;;8.03;;
24859;SDS011;12936;52.006;4.350;2023-04-01T08:03:33;14.90;;;8.30;;
24859;SDS011;12936;52.006;4.350;2023-04-01T08:06:13;16.20;;;8.33;;
24859;SDS011;12936;52.006;4.350;2023-04-01T08:08:50;17.60;;;9.07;;
24859;SDS011;12936;52.006;4.350;2023-04-01T08:11:31;16.40;;;8.93;;
24859;SDS011;12936;52.006;4.350;2023-04-01T08:14:11;20.13;;;8.83;;
24859;SDS011;12936;52.006;4.350;2023-04-01T08:16:46;19.50;;;8.10;;
24859;SDS011;12936;52.006;4.350;2023-04-01T08:19:26;19.90;;;9.17;;
24859;SDS011;12936;52.006;4.350;2023-04-01T08:22:01;21.33;;;9.77;;
24859;SDS011;12936;52.006;4.350;2023-04-01T08:24:35;24.53;;;10.00;;
24859;SDS011;12936;52.006;4.350;2023-04-01T08:27:16;18.37;;;8.57;;
24859;SDS011;12936;52.006;4.350;2023-04-01T08:29:48;23.17;;;9.73;;
24859;SDS011;12936;52.006;4.350;2023-04-01T08:32:21;22.03;;;8.90;;
24859;SDS011;12936;52.006;4.350;2023-04-01T08:34:55;21.10;;;8.67;;
24859;SDS011;12936;52.006;4.350;2023-04-01T08:37:35;24.27;;;8.90;;
24859;SDS011;12936;52.006;4.350;2023-04-01T08:40:15;22.30;;;9.13;;
24859;SDS011;12936;52.006;4.350;2023-04-01T08:43:02;25.20;;;9.40;;
24859;SDS011;12936;52.006;4.350;2023-04-01T08:45:41;20.30;;;8.93;;
24859;SDS011;12936;52.006;4.350;2023-04-01T08:48:38;21.40;;;10.10;;
24859;SDS011;12936;52.006;4.350;2023-04-01T08:51:32;28.43;;;10.97;;
24859;SDS011;12936;52.006;4.350;2023-04-01T08:57:35;22.13;;;9.30;;
24859;SDS011;12936;52.006;4.350;2023-04-01T09:00:19;18.10;;;9.23;;
24859;SDS011;12936;52.006;4.350;2023-04-01T09:06:12;18.10;;;8.40;;
24859;SDS011;12936;52.006;4.350;2023-04-01T09:09:02;17.07;;;8.23;;
24859;SDS011;12936;52.006;4.350;2023-04-01T09:20:56;19.00;;;8.53;;
24859;SDS011;12936;52.006;4.350;2023-04-01T09:23:45;26.83;;;9.60;;
24859;SDS011;12936;52.006;4.350;2023-04-01T09:26:35;26.13;;;10.13;;
24859;SDS011;12936;52.006;4.350;2023-04-01T09:29:22;24.00;;;9.77;;
24859;SDS011;12936;52.006;4.350;2023-04-01T09:32:10;17.43;;;9.23;;
24859;SDS011;12936;52.006;4.350;2023-04-01T09:34:54;21.30;;;9.13;;
24859;SDS011;12936;52.006;4.350;2023-04-01T09:37:34;20.40;;;9.33;;
24859;SDS011;12936;52.006;4.350;2023-04-01T09:40:14;21.57;;;8.63;;
24859;SDS011;12936;52.006;4.350;2023-04-01T09:42:47;21.17;;;8.40;;
24859;SDS011;12936;52.006;4.350;2023-04-01T09:45:44;17.20;;;9.00;;
24859;SDS011;12936;52.006;4.350;2023-04-01T09:48:28;19.70;;;8.37;;
24859;SDS011;12936;52.006;4.350;2023-04-01T09:51:09;17.43;;;8.73;;
24859;SDS011;12936;52.006;4.350;2023-04-01T09:53:54;10.77;;;7.00;;
24859;SDS011;12936;52.006;4.350;2023-04-01T09:59:43;14.77;;;7.63;;
24859;SDS011;12936;52.006;4.350;2023-04-01T10:05:41;15.40;;;7.57;;
24859;SDS011;12936;52.006;4.350;2023-04-01T10:08:40;19.17;;;8.03;;
24859;SDS011;12936;52.006;4.350;2023-04-01T10:11:45;14.50;;;7.37;;
24859;SDS011;12936;52.006;4.350;2023-04-01T10:14:34;13.63;;;6.80;;
24859;SDS011;12936;52.006;4.350;2023-04-01T10:17:28;17.03;;;7.00;;
24859;SDS011;12936;52.006;4.350;2023-04-01T10:20:27;11.77;;;5.93;;
24859;SDS011;12936;52.006;4.350;2023-04-01T10:23:18;16.13;;;6.80;;
24859;SDS011;12936;52.006;4.350;2023-04-01T10:26:01;14.23;;;6.43;;
24859;SDS011;12936;52.006;4.350;2023-04-01T10:31:59;13.13;;;7.47;;
24859;SDS011;12936;52.006;4.350;2023-04-01T10:34:52;20.40;;;8.47;;
24859;SDS011;12936;52.006;4.350;2023-04-01T10:37:43;15.57;;;7.73;;
24859;SDS011;12936;52.006;4.350;2023-04-01T10:40:42;18.60;;;8.93;;
24859;SDS011;12936;52.006;4.350;2023-04-01T10:50:29;20.93;;;8.57;;
24859;SDS011;12936;52.006;4.350;2023-04-01T10:56:20;17.90;;;8.70;;
24859;SDS011;12936;52.006;4.350;2023-04-01T11:02:10;23.80;;;8.70;;
24859;SDS011;12936;52.006;4.350;2023-04-01T11:08:56;18.83;;;9.23;;
24859;SDS011;12936;52.006;4.350;2023-04-01T11:54:06;20.30;;;9.50;;
24859;SDS011;12936;52.006;4.350;2023-04-01T11:56:49;16.23;;;8.10;;
24859;SDS011;12936;52.006;4.350;2023-04-01T11:59:32;19.80;;;8.53;;
24859;SDS011;12936;52.006;4.350;2023-04-01T12:02:20;17.93;;;9.27;;
24859;SDS011;12936;52.006;4.350;2023-04-01T12:05:08;19.63;;;9.27;;
24859;SDS011;12936;52.006;4.350;2023-04-01T12:07:53;17.40;;;9.20;;
24859;SDS011;12936;52.006;4.350;2023-04-01T12:10:36;24.00;;;10.27;;
24859;SDS011;12936;52.006;4.350;2023-04-01T12:13:11;20.47;;;10.77;;
24859;SDS011;12936;52.006;4.350;2023-04-01T12:15:53;22.97;;;9.87;;
24859;SDS011;12936;52.006;4.350;2023-04-01T12:18:33;19.37;;;9.70;;
24859;SDS011;12936;52.006;4.350;2023-04-01T12:21:09;18.53;;;9.63;;
24859;SDS011;12936;52.006;4.350;2023-04-01T12:23:50;15.93;;;8.30;;
24859;SDS011;12936;52.006;4.350;2023-04-01T12:29:47;15.50;;;6.70;;
24859;SDS011;12936;52.006;4.350;2023-04-01T12:32:23;17.17;;;8.07;;
24859;SDS011;12936;52.006;4.350;2023-04-01T12:35:05;19.47;;;8.47;;
24859;SDS011;12936;52.006;4.350;2023-04-01T12:37:50;16.87;;;8.67;;
24859;SDS011;12936;52.006;4.350;2023-04-01T12:40:36;14.70;;;7.60;;
24859;SDS011;12936;52.006;4.350;2023-04-01T12:43:26;15.27;;;7.00;;
24859;SDS011;12936;52.006;4.350;2023-04-01T12:46:20;15.37;;;7.37;;
24859;SDS011;12936;52.006;4.350;2023-04-01T12:49:08;16.33;;;8.10;;
24859;SDS011;12936;52.006;4.350;2023-04-01T12:54:58;16.63;;;8.07;;
24859;SDS011;12936;52.006;4.350;2023-04-01T12:57:49;16.93;;;8.07;;
24859;SDS011;12936;52.006;4.350;2023-04-01T13:00:38;19.23;;;8.83;;
24859;SDS011;12936;52.006;4.350;2023-04-01T13:03:23;17.70;;;8.03;;
24859;SDS011;12936;52.006;4.350;2023-04-01T13:06:17;18.00;;;8.37;;
24859;SDS011;12936;52.006;4.350;2023-04-01T13:08:59;17.83;;;8.73;;
24859;SDS011;12936;52.006;4.350;2023-04-01T13:11:47;18.10;;;8.40;;
24859;SDS011;12936;52.006;4.350;2023-04-01T13:14:35;17.03;;;8.13;;
24859;SDS011;12936;52.006;4.350;2023-04-01T13:17:18;19.43;;;8.40;;
24859;SDS011;12936;52.006;4.350;2023-04-01T13:19:50;19.93;;;7.43;;
24859;SDS011;12936;52.006;4.350;2023-04-01T13:22:41;19.37;;;7.67;;
24859;SDS011;12936;52.006;4.350;2023-04-01T13:25:21;22.80;;;7.83;;
24859;SDS011;12936;52.006;4.350;2023-04-01T13:27:55;16.60;;;7.27;;
24859;SDS011;12936;52.006;4.350;2023-04-01T13:30:30;14.83;;;5.67;;
24859;SDS011;12936;52.006;4.350;2023-04-01T13:33:10;14.90;;;4.90;;
24859;SDS011;12936;52.006;4.350;2023-04-01T13:35:45;16.73;;;4.70;;
24859;SDS011;12936;52.006;4.350;2023-04-01T13:38:25;19.60;;;4.40;;
24859;SDS011;12936;52.006;4.350;2023-04-01T13:41:10;11.63;;;5.03;;
24859;SDS011;12936;52.006;4.350;2023-04-01T13:43:47;15.73;;;5.17;;
24859;SDS011;12936;52.006;4.350;2023-04-01T13:46:26;12.60;;;4.93;;
24859;SDS011;12936;52.006;4.350;2023-04-01T13:49:17;10.53;;;4.60;;
24859;SDS011;12936;52.006;4.350;2023-04-01T13:52:14;11.60;;;4.50;;
24859;SDS011;12936;52.006;4.350;2023-04-01T13:55:16;10.43;;;4.87;;
24859;SDS011;12936;52.006;4.350;2023-04-01T13:58:04;12.13;;;4.53;;
24859;SDS011;12936;52.006;4.350;2023-04-01T14:00:48;14.93;;;4.67;;
24859;SDS011;12936;52.006;4.350;2023-04-01T14:03:42;10.30;;;4.20;;
24859;SDS011;12936;52.006;4.350;2023-04-01T14:06:28;8.97;;;4.07;;
24859;SDS011;12936;52.006;4.350;2023-04-01T14:09:10;10.23;;;4.23;;
24859;SDS011;12936;52.006;4.350;2023-04-01T14:11:50;8.03;;;4.20;;
24859;SDS011;12936;52.006;4.350;2023-04-01T14:14:26;9.57;;;3.40;;
24859;SDS011;12936;52.006;4.350;2023-04-01T14:17:12;13.10;;;4.30;;
24859;SDS011;12936;52.006;4.350;2023-04-01T14:20:13;7.57;;;3.90;;
24859;SDS011;12936;52.006;4.350;2023-04-01T14:26:18;11.23;;;5.10;;
24859;SDS011;12936;52.006;4.350;2023-04-01T14:28:54;11.77;;;5.10;;
24859;SDS011;12936;52.006;4.350;2023-04-01T14:31:42;13.23;;;5.63;;
24859;SDS011;12936;52.006;4.350;2023-04-01T14:34:34;13.40;;;5.60;;
24859;SDS011;12936;52.006;4.350;2023-04-01T14:37:25;16.87;;;6.67;;
24859;SDS011;12936;52.006;4.350;2023-04-01T14:40:24;17.17;;;6.77;;
24859;SDS011;12936;52.006;4.350;2023-04-01T14:43:10;18.03;;;5.40;;
24859;SDS011;12936;52.006;4.350;2023-04-01T14:46:05;22.13;;;6.03;;
24859;SDS011;12936;52.006;4.350;2023-04-01T14:48:52;21.33;;;6.37;;
24859;SDS011;12936;52.006;4.350;2023-04-01T14:51:28;14.33;;;5.87;;
24859;SDS011;12936;52.006;4.350;2023-04-01T14:54:02;18.53;;;4.80;;
24859;SDS011;12936;52.006;4.350;2023-04-01T14:56:38;21.90;;;5.23;;
24859;SDS011;12936;52.006;4.350;2023-04-01T14:59:09;16.33;;;4.53;;
24859;SDS011;12936;52.006;4.350;2023-04-01T15:01:44;13.70;;;3.90;;
24859;SDS011;12936;52.006;4.350;2023-04-01T15:07:42;19.23;;;4.73;;
24859;SDS011;12936;52.006;4.350;2023-04-01T15:10:32;20.50;;;4.47;;
24859;SDS011;12936;52.006;4.350;2023-04-01T15:13:18;27.77;;;4.70;;
24859;SDS011;12936;52.006;4.350;2023-04-01T15:16:06;19.13;;;4.40;;
24859;SDS011;12936;52.006;4.350;2023-04-01T15:18:44;18.97;;;5.40;;
24859;SDS011;12936;52.006;4.350;2023-04-01T15:21:26;17.77;;;4.30;;
24859;SDS011;12936;52.006;4.350;2023-04-01T15:24:10;16.23;;;4.27;;
24859;SDS011;12936;52.006;4.350;2023-04-01T15:26:51;15.37;;;3.80;;
24859;SDS011;12936;52.006;4.350;2023-04-01T15:29:45;17.27;;;4.10;;
24859;SDS011;12936;52.006;4.350;2023-04-01T15:32:29;27.27;;;4.47;;
24859;SDS011;12936;52.006;4.350;2023-04-01T15:35:13;17.57;;;4.17;;
24859;SDS011;12936;52.006;4.350;2023-04-01T15:37:50;15.43;;;4.27;;
24859;SDS011;12936;52.006;4.350;2023-04-01T15:40:22;9.97;;;3.80;;
24859;SDS011;12936;52.006;4.350;2023-04-01T15:42:58;19.07;;;6.57;;
24859;SDS011;12936;52.006;4.350;2023-04-01T15:45:41;16.47;;;4.40;;
24859;SDS011;12936;52.006;4.350;2023-04-01T15:48:19;15.90;;;4.20;;
24859;SDS011;12936;52.006;4.350;2023-04-01T15:51:09;12.70;;;3.57;;
24859;SDS011;12936;52.006;4.350;2023-04-01T15:53:47;18.47;;;4.53;;
24859;SDS011;12936;52.006;4.350;2023-04-01T15:56:35;17.03;;;3.97;;
24859;SDS011;12936;52.006;4.350;2023-04-01T15:59:14;13.50;;;4.03;;
24859;SDS011;12936;52.006;4.350;2023-04-01T16:01:59;12.40;;;4.17;;
24859;SDS011;12936;52.006;4.350;2023-04-01T16:04:44;21.90;;;4.17;;
24859;SDS011;12936;52.006;4.350;2023-04-01T16:07:20;18.33;;;3.80;;
24859;SDS011;12936;52.006;4.350;2023-04-01T16:10:16;17.90;;;3.50;;
24859;SDS011;12936;52.006;4.350;2023-04-01T16:12:57;20.87;;;3.70;;
24859;SDS011;12936;52.006;4.350;2023-04-01T16:15:39;16.93;;;3.80;;
24859;SDS011;12936;52.006;4.350;2023-04-01T16:21:21;21.00;;;4.17;;
24859;SDS011;12936;52.006;4.350;2023-04-01T16:24:03;17.57;;;3.67;;
24859;SDS011;12936;52.006;4.350;2023-04-01T16:26:43;14.57;;;4.17;;
24859;SDS011;12936;52.006;4.350;2023-04-01T16:29:20;14.20;;;4.03;;
24859;SDS011;12936;52.006;4.350;2023-04-01T16:31:57;17.43;;;4.20;;
24859;SDS011;12936;52.006;4.350;2023-04-01T16:34:44;13.40;;;4.40;;
24859;SDS011;12936;52.006;4.350;2023-04-01T16:37:28;17.40;;;4.13;;
24859;SDS011;12936;52.006;4.350;2023-04-01T16:40:09;13.13;;;4.50;;
24859;SDS011;12936;52.006;4.350;2023-04-01T16:42:46;15.33;;;4.60;;
24859;SDS011;12936;52.006;4.350;2023-04-01T16:45:24;16.67;;;4.63;;
24859;SDS011;12936;52.006;4.350;2023-04-01T16:48:01;16.10;;;4.03;;
24859;SDS011;12936;52.006;4.350;2023-04-01T16:50:48;13.63;;;4.37;;
24859;SDS011;12936;52.006;4.350;2023-04-01T16:53:25;11.87;;;4.17;;
24859;SDS011;12936;52.006;4.350;2023-04-01T16:56:04;13.17;;;4.10;;
24859;SDS011;12936;52.006;4.350;2023-04-01T16:58:39;17.07;;;4.90;;
24859;SDS011;12936;52.006;4.350;2023-04-01T17:01:12;13.50;;;4.20;;
24859;SDS011;12936;52.006;4.350;2023-04-01T17:03:43;18.60;;;5.37;;
24859;SDS011;12936;52.006;4.350;2023-04-01T17:06:18;18.03;;;4.83;;
24859;SDS011;12936;52.006;4.350;2023-04-01T17:09:02;14.20;;;5.83;;
24859;SDS011;12936;52.006;4.350;2023-04-01T17:11:50;16.10;;;5.10;;
24859;SDS011;12936;52.006;4.350;2023-04-01T17:14:24;16.63;;;5.30;;
24859;SDS011;12936;52.006;4.350;2023-04-01T17:17:15;15.23;;;5.17;;
24859;SDS011;12936;52.006;4.350;2023-04-01T17:19:56;12.43;;;5.33;;
24859;SDS011;12936;52.006;4.350;2023-04-01T17:22:42;11.70;;;5.30;;
24859;SDS011;12936;52.006;4.350;2023-04-01T17:25:18;8.33;;;5.67;;
24859;SDS011;12936;52.006;4.350;2023-04-01T17:28:05;8.23;;;6.00;;
24859;SDS011;12936;52.006;4.350;2023-04-01T17:30:43;7.30;;;5.43;;
24859;SDS011;12936;52.006;4.350;2023-04-01T17:36:16;10.37;;;6.07;;
24859;SDS011;12936;52.006;4.350;2023-04-01T17:39:07;10.17;;;5.60;;